Lisbon, Illinois
Current Conditions -  °F | °C
As of 6:35 PM on Saturday 20 Dec 2014 (Local Time) from KC09 Reporting Station
Overcast Overcast  
Wind Chill: 32°   Ceiling: 3900
Heat Index: 32°   Visibility: 7mi
Dew Point: 29°   Wind: 3mph
Humidity: 90%   Direction: 150°SSE
Pressure: 30.26"   Gusts: NA
Location:  41.5124°N, 88.5214°W
Report Text: KC09 210035Z AUTO 15003KT 7SM BKN039 OVC055 00/M01 A3026 RMK AO2 T00001014
Loading
Personal Weather Stations






























Interactive Weather Map New forecast layout! Learn more

10-Day Weather Forecast

Advertisements
Track Severe Weather on mobile